Time;durP1;ratioP1;P1;durP2;ratioP2;P2;SDS_P1;SDS_P2;PMS_P1;PMS_P2;Temp;Humidity;BMP_temperature;BMP_pressure;BME280_temperature;BME280_humidity;BME280_pressure;Samples;Min_cycle;Max_cycle;Signal;HPM_P1;HPM_P2
2023/06/02 00:01:03;;;;;;;7.97;3.20;;;14.30;93.10;;;;;;2091455;28;20070;-72
2023/06/02 00:02:04;;;;;;;5.70;2.97;;;14.40;93.20;;;;;;2094422;28;20131;-71
2023/06/02 00:03:05;;;;;;;8.82;3.10;;;14.30;93.10;;;;;;2084699;28;20028;-72
2023/06/02 00:04:06;;;;;;;6.22;2.85;;;14.30;93.30;;;;;;2089315;28;20025;-71
2023/06/02 00:05:07;;;;;;;10.13;3.40;;;14.40;93.40;;;;;;2090805;28;20567;-71
2023/06/02 00:06:09;;;;;;;9.23;3.20;;;14.30;93.30;;;;;;2091118;28;20032;-72
2023/06/02 00:07:09;;;;;;;6.78;3.10;;;14.30;93.20;;;;;;2095762;28;20568;-71
2023/06/02 00:08:11;;;;;;;8.48;3.22;;;14.30;93.30;;;;;;2094401;28;20396;-71
2023/06/02 00:09:11;;;;;;;7.05;2.90;;;14.30;93.20;;;;;;2090953;28;20017;-71
2023/06/02 00:10:12;;;;;;;8.35;3.30;;;14.30;93.10;;;;;;2091474;28;20391;-72
2023/06/02 00:11:13;;;;;;;6.72;2.60;;;14.30;93.30;;;;;;2090741;28;20075;-72
2023/06/02 00:12:13;;;;;;;7.65;3.47;;;14.30;93.30;;;;;;2090720;28;20499;-71
2023/06/02 00:13:14;;;;;;;7.55;3.30;;;14.30;93.30;;;;;;2089845;28;20020;-71
2023/06/02 00:14:14;;;;;;;7.13;3.65;;;14.30;93.40;;;;;;2090785;28;20021;-71
2023/06/02 00:15:15;;;;;;;6.82;2.72;;;14.30;93.30;;;;;;2090542;28;20024;-72
2023/06/02 00:16:16;;;;;;;7.30;2.95;;;14.30;93.10;;;;;;2091575;28;20054;-72
2023/06/02 00:17:19;;;;;;;12.02;3.78;;;14.30;93.30;;;;;;2090339;28;20925;-71
2023/06/02 00:18:20;;;;;;;9.20;4.13;;;14.30;93.40;;;;;;2091684;28;20020;-72
2023/06/02 00:19:23;;;;;;;7.15;2.47;;;14.30;93.60;;;;;;2094861;28;20090;-71
2023/06/02 00:20:26;;;;;;;7.45;3.03;;;14.30;93.50;;;;;;2094754;28;20616;-72
2023/06/02 00:21:26;;;;;;;10.70;3.28;;;14.20;93.40;;;;;;2092154;28;20028;-72
2023/06/02 00:22:29;;;;;;;11.30;3.88;;;14.30;93.40;;;;;;2093445;28;20029;-72
2023/06/02 00:23:30;;;;;;;10.13;3.63;;;14.20;93.50;;;;;;2089495;28;20028;-72
2023/06/02 00:24:30;;;;;;;6.47;3.13;;;14.20;93.50;;;;;;2091932;28;20024;-72
2023/06/02 00:25:32;;;;;;;10.18;3.83;;;14.20;93.50;;;;;;2092475;28;20385;-72
2023/06/02 00:26:32;;;;;;;10.98;3.30;;;14.20;93.40;;;;;;2092763;28;20126;-72
2023/06/02 00:27:33;;;;;;;9.20;4.10;;;14.20;93.40;;;;;;2094294;28;20062;-72
2023/06/02 00:28:34;;;;;;;6.30;3.33;;;14.20;93.30;;;;;;2092214;28;20385;-72
2023/06/02 00:29:40;;;;;;;9.80;3.63;;;14.20;93.20;;;;;;2090864;28;20134;-72
2023/06/02 00:30:41;;;;;;;9.48;3.15;;;14.20;93.40;;;;;;2092212;28;20041;-71
2023/06/02 00:31:41;;;;;;;10.35;3.47;;;14.10;93.30;;;;;;2091761;28;20796;-71
2023/06/02 00:32:42;;;;;;;9.40;3.42;;;14.20;93.40;;;;;;2089000;28;20411;-71
2023/06/02 00:33:42;;;;;;;8.50;3.88;;;14.10;93.30;;;;;;2090983;28;20116;-72
2023/06/02 00:34:43;;;;;;;9.13;3.40;;;14.20;93.20;;;;;;2094044;28;20020;-72
2023/06/02 00:35:43;;;;;;;7.53;3.22;;;14.20;93.30;;;;;;2092803;28;20032;-72
2023/06/02 00:36:44;;;;;;;6.82;3.00;;;14.10;93.30;;;;;;2092606;28;20500;-71
2023/06/02 00:37:44;;;;;;;7.32;3.30;;;14.10;93.30;;;;;;2091919;28;20040;-72
2023/06/02 00:38:45;;;;;;;6.75;3.08;;;14.10;93.30;;;;;;2092729;28;20154;-71
2023/06/02 00:39:45;;;;;;;8.75;3.20;;;14.20;93.30;;;;;;2092339;28;20025;-72
2023/06/02 00:40:46;;;;;;;8.02;3.20;;;14.10;93.20;;;;;;2092351;28;20036;-72
2023/06/02 00:41:46;;;;;;;6.70;3.28;;;14.10;93.40;;;;;;2092398;28;20028;-72
2023/06/02 00:42:47;;;;;;;8.32;3.10;;;14.10;93.30;;;;;;2093287;28;20517;-72
2023/06/02 00:43:47;;;;;;;10.48;3.25;;;14.10;93.30;;;;;;2092886;28;20036;-72
2023/06/02 00:44:48;;;;;;;9.25;3.10;;;14.10;92.90;;;;;;2096161;28;20032;-71
2023/06/02 00:45:48;;;;;;;9.25;3.35;;;14.10;92.70;;;;;;2091748;28;20773;-71
2023/06/02 00:46:49;;;;;;;7.88;3.38;;;14.10;92.50;;;;;;2092949;28;20029;-72
2023/06/02 00:47:50;;;;;;;7.72;2.90;;;14.10;92.50;;;;;;2092858;28;20031;-72
2023/06/02 00:48:51;;;;;;;5.97;2.80;;;14.00;92.30;;;;;;2091558;28;20102;-72
2023/06/02 00:49:51;;;;;;;7.93;3.67;;;14.00;92.30;;;;;;2092587;28;20028;-72
2023/06/02 00:50:52;;;;;;;7.50;3.67;;;14.00;92.40;;;;;;2092186;28;20051;-71
2023/06/02 00:51:54;;;;;;;5.72;3.20;;;14.00;92.20;;;;;;2092021;28;20025;-72
2023/06/02 00:52:57;;;;;;;9.95;3.53;;;14.00;91.90;;;;;;2092848;28;20551;-72
2023/06/02 00:53:58;;;;;;;9.23;3.90;;;13.90;91.80;;;;;;2092607;28;20036;-72
2023/06/02 00:54:59;;;;;;;10.85;4.13;;;13.90;91.90;;;;;;2095814;28;20062;-72
2023/06/02 00:56:00;;;;;;;7.32;3.05;;;13.90;92.00;;;;;;2092662;28;20383;-72
2023/06/02 00:57:01;;;;;;;7.32;3.08;;;13.90;91.90;;;;;;2091884;28;20058;-72
2023/06/02 00:58:04;;;;;;;7.72;2.75;;;13.90;91.90;;;;;;2092569;28;20037;-71
2023/06/02 00:59:06;;;;;;;5.25;2.78;;;13.80;91.90;;;;;;2089636;28;20032;-72
2023/06/02 01:00:11;;;;;;;9.07;3.13;;;13.90;92.10;;;;;;2089753;28;20043;-71
2023/06/02 01:01:12;;;;;;;17.55;3.90;;;13.90;92.00;;;;;;2094896;28;20574;-71
2023/06/02 01:02:13;;;;;;;9.68;2.95;;;13.80;91.90;;;;;;2093143;28;20384;-71
2023/06/02 01:03:14;;;;;;;7.38;2.75;;;13.80;91.90;;;;;;2090651;28;20021;-71
2023/06/02 01:04:16;;;;;;;9.45;2.80;;;13.80;91.90;;;;;;2090465;28;20056;-71
2023/06/02 01:05:19;;;;;;;9.23;2.80;;;13.80;91.80;;;;;;2089052;28;20036;-71
2023/06/02 01:06:31;;;;;;;9.00;3.15;;;13.80;91.60;;;;;;2092395;28;20021;-71
2023/06/02 01:07:33;;;;;;;6.97;3.03;;;13.80;91.90;;;;;;2094922;28;20017;-71
2023/06/02 01:08:37;;;;;;;6.82;2.97;;;13.80;91.90;;;;;;2091170;28;20078;-71
2023/06/02 01:09:38;;;;;;;10.85;3.20;;;13.80;91.80;;;;;;2091425;28;20029;-71
2023/06/02 01:10:39;;;;;;;11.57;3.05;;;13.80;91.90;;;;;;2091547;28;20017;-71
2023/06/02 01:11:39;;;;;;;10.18;2.97;;;13.80;91.70;;;;;;2091779;28;20025;-71
2023/06/02 01:12:40;;;;;;;7.30;2.95;;;13.80;91.90;;;;;;2091961;28;20028;-71
2023/06/02 01:13:41;;;;;;;6.82;3.67;;;13.80;91.90;;;;;;2091772;28;20480;-71
2023/06/02 01:14:41;;;;;;;11.25;3.33;;;13.80;91.90;;;;;;2091742;28;20483;-71
2023/06/02 01:15:46;;;;;;;9.25;3.40;;;13.80;91.90;;;;;;2092694;28;20461;-71
2023/06/02 01:16:49;;;;;;;10.15;3.20;;;13.80;91.80;;;;;;2094848;28;20103;-70
2023/06/02 01:17:50;;;;;;;7.13;3.38;;;13.80;91.60;;;;;;2094173;28;20021;-71
2023/06/02 01:18:51;;;;;;;5.53;2.92;;;13.80;91.50;;;;;;2093528;28;20078;-70
2023/06/02 01:19:54;;;;;;;12.65;3.67;;;13.70;91.40;;;;;;2090623;28;20576;-71
2023/06/02 01:20:58;;;;;;;7.95;3.05;;;13.70;91.30;;;;;;2092589;28;20028;-71
2023/06/02 01:22:01;;;;;;;9.68;3.00;;;13.70;91.30;;;;;;2091956;28;20456;-71
2023/06/02 01:23:29;;;;;;;8.70;3.05;;;13.60;91.50;;;;;;2089415;28;20067;-71
2023/06/02 01:24:38;;;;;;;9.95;3.22;;;13.60;91.80;;;;;;2091880;28;20016;-70
2023/06/02 01:25:39;;;;;;;8.90;2.97;;;13.60;91.60;;;;;;2090858;28;20032;-71
2023/06/02 01:26:40;;;;;;;9.80;3.58;;;13.60;91.60;;;;;;2093357;28;20131;-71
2023/06/02 01:27:40;;;;;;;12.77;3.45;;;13.60;91.80;;;;;;2091460;28;20025;-71
2023/06/02 01:28:41;;;;;;;10.57;3.42;;;13.60;91.60;;;;;;2091513;28;20028;-71
2023/06/02 01:29:42;;;;;;;8.80;4.43;;;13.60;91.70;;;;;;2091757;28;20112;-71
2023/06/02 01:30:43;;;;;;;13.32;4.20;;;13.60;91.80;;;;;;2091752;28;20033;-71
2023/06/02 01:31:47;;;;;;;9.48;3.45;;;13.60;91.80;;;;;;2090953;28;20089;-71
2023/06/02 01:33:15;;;;;;;9.52;3.50;;;13.60;91.70;;;;;;2091764;28;20036;-70
2023/06/02 01:34:25;;;;;;;7.35;3.50;;;13.60;91.60;;;;;;2090786;28;20127;-70
2023/06/02 01:35:30;;;;;;;10.90;3.88;;;13.60;91.70;;;;;;2090738;28;20021;-70
2023/06/02 01:36:35;;;;;;;13.23;4.03;;;13.60;91.80;;;;;;2093599;28;20077;-70
2023/06/02 01:37:43;;;;;;;9.85;3.88;;;13.60;91.80;;;;;;2093456;28;20539;-71
2023/06/02 01:38:46;;;;;;;8.88;3.53;;;13.60;91.80;;;;;;2092937;28;20915;-70
2023/06/02 01:39:48;;;;;;;8.13;3.25;;;13.60;91.70;;;;;;2091084;28;20021;-71
2023/06/02 01:40:51;;;;;;;9.23;3.28;;;13.60;91.80;;;;;;2091304;28;20021;-71
2023/06/02 01:41:52;;;;;;;10.07;3.83;;;13.60;91.80;;;;;;2092895;28;20665;-71
2023/06/02 01:42:53;;;;;;;16.45;3.97;;;13.60;91.80;;;;;;2094367;28;20434;-71
2023/06/02 01:43:57;;;;;;;10.80;3.60;;;13.60;91.70;;;;;;2094015;28;20024;-71
2023/06/02 01:45:00;;;;;;;10.90;3.85;;;13.60;91.70;;;;;;2094510;28;20086;-70
2023/06/02 01:46:01;;;;;;;11.63;3.47;;;13.60;91.80;;;;;;2094666;28;20017;-71
2023/06/02 01:47:02;;;;;;;8.82;3.25;;;13.60;91.60;;;;;;2092307;28;20024;-70
2023/06/02 01:48:06;;;;;;;17.20;4.43;;;13.60;91.50;;;;;;2091233;28;20024;-71
2023/06/02 01:49:15;;;;;;;10.05;3.40;;;13.60;91.50;;;;;;2090781;28;20056;-71
2023/06/02 01:50:16;;;;;;;8.57;3.30;;;13.60;91.70;;;;;;2092152;28;20020;-71
2023/06/02 01:51:16;;;;;;;10.13;3.70;;;13.60;91.50;;;;;;2090138;28;20056;-71
2023/06/02 01:52:17;;;;;;;6.95;3.17;;;13.60;91.50;;;;;;2091595;28;20035;-71
2023/06/02 01:53:19;;;;;;;5.75;2.63;;;13.70;91.40;;;;;;2091887;28;20027;-71
2023/06/02 01:54:19;;;;;;;12.18;3.42;;;13.70;91.10;;;;;;2093179;28;20035;-71
2023/06/02 01:55:20;;;;;;;11.07;3.40;;;13.70;91.40;;;;;;2090127;28;20056;-71
2023/06/02 01:56:20;;;;;;;8.25;3.30;;;13.70;91.30;;;;;;2090634;28;20068;-70
2023/06/02 01:57:22;;;;;;;8.40;3.33;;;13.70;91.20;;;;;;2092789;28;20028;-71
2023/06/02 01:58:23;;;;;;;10.15;3.35;;;13.70;91.30;;;;;;2092509;28;20512;-71
2023/06/02 01:59:23;;;;;;;11.15;3.90;;;13.70;91.30;;;;;;2091932;28;20021;-71
2023/06/02 02:00:24;;;;;;;10.27;4.20;;;13.70;91.30;;;;;;2093667;28;20021;-71
2023/06/02 02:01:27;;;;;;;8.77;3.53;;;13.70;91.30;;;;;;2092211;28;20055;-71
2023/06/02 02:02:27;;;;;;;11.85;3.83;;;13.70;91.40;;;;;;2091447;28;20017;-71
2023/06/02 02:03:32;;;;;;;10.10;3.60;;;13.70;91.30;;;;;;2094592;28;20512;-71
2023/06/02 02:04:33;;;;;;;19.80;5.22;;;13.70;91.10;;;;;;2085712;28;20543;-71
2023/06/02 02:05:33;;;;;;;7.28;4.22;;;13.70;91.00;;;;;;2090991;28;20086;-70
2023/06/02 02:06:34;;;;;;;7.65;3.50;;;13.60;91.00;;;;;;2090261;28;20024;-71
2023/06/02 02:07:35;;;;;;;8.05;3.40;;;13.70;90.90;;;;;;2093799;28;20127;-70
2023/06/02 02:08:35;;;;;;;8.95;3.88;;;13.70;90.80;;;;;;2096232;28;20030;-71
2023/06/02 02:09:36;;;;;;;8.52;4.03;;;13.60;90.80;;;;;;2094683;28;20032;-71
2023/06/02 02:10:36;;;;;;;7.40;4.40;;;13.60;90.80;;;;;;2093696;28;20504;-70
2023/06/02 02:11:38;;;;;;;10.05;3.80;;;13.60;90.90;;;;;;2092578;28;20045;-71
2023/06/02 02:12:38;;;;;;;8.25;4.13;;;13.60;91.10;;;;;;2091049;28;20046;-71
2023/06/02 02:13:39;;;;;;;12.70;4.50;;;13.50;91.30;;;;;;2089308;28;20020;-71
2023/06/02 02:14:39;;;;;;;10.57;4.18;;;13.50;91.10;;;;;;2091143;28;20071;-71
2023/06/02 02:15:40;;;;;;;12.23;3.60;;;13.50;91.20;;;;;;2091580;28;20028;-71
2023/06/02 02:16:44;;;;;;;8.30;3.75;;;13.50;91.20;;;;;;2092167;28;20028;-71
2023/06/02 02:17:46;;;;;;;9.13;4.22;;;13.50;91.10;;;;;;2092409;28;20043;-71
2023/06/02 02:18:47;;;;;;;9.88;3.97;;;13.40;90.90;;;;;;2090858;28;20033;-71
2023/06/02 02:19:50;;;;;;;12.13;4.13;;;13.40;91.00;;;;;;2090299;28;20029;-70
2023/06/02 02:20:51;;;;;;;11.15;4.95;;;13.40;91.00;;;;;;2092525;28;21993;-71
2023/06/02 02:21:51;;;;;;;7.60;3.60;;;13.40;91.00;;;;;;2094120;28;20115;-71
2023/06/02 02:22:52;;;;;;;11.13;4.32;;;13.40;91.00;;;;;;2091009;28;20053;-71
2023/06/02 02:23:54;;;;;;;12.32;3.13;;;13.40;91.00;;;;;;2090867;28;20428;-71
2023/06/02 02:24:54;;;;;;;11.50;3.92;;;13.40;91.00;;;;;;2093192;28;20028;-71
2023/06/02 02:25:55;;;;;;;11.48;4.60;;;13.40;91.00;;;;;;2092687;28;20052;-71
2023/06/02 02:26:55;;;;;;;12.18;4.13;;;13.40;91.10;;;;;;2094570;28;20488;-71
2023/06/02 02:27:56;;;;;;;13.38;4.40;;;13.30;91.00;;;;;;2091872;28;20025;-71
2023/06/02 02:28:56;;;;;;;13.65;4.30;;;13.30;91.10;;;;;;2089955;28;20504;-71
2023/06/02 02:29:57;;;;;;;12.10;4.38;;;13.30;91.10;;;;;;2094578;28;22432;-70
2023/06/02 02:30:58;;;;;;;10.05;4.03;;;13.30;91.10;;;;;;2093922;28;20036;-71
2023/06/02 02:31:58;;;;;;;8.90;3.58;;;13.30;91.20;;;;;;2099091;28;20034;-71
2023/06/02 02:33:02;;;;;;;17.35;4.18;;;13.30;91.20;;;;;;2098009;28;20023;-71
2023/06/02 02:34:03;;;;;;;12.13;3.90;;;13.20;91.10;;;;;;2092228;28;20119;-71
2023/06/02 02:35:04;;;;;;;8.23;3.70;;;13.30;91.20;;;;;;2091558;28;20472;-71
2023/06/02 02:36:05;;;;;;;9.32;3.17;;;13.20;91.30;;;;;;2091281;28;20025;-70
2023/06/02 02:37:06;;;;;;;8.07;3.17;;;13.30;91.20;;;;;;2091786;28;20028;-70
2023/06/02 02:38:07;;;;;;;13.70;4.20;;;13.30;91.30;;;;;;2092206;28;20028;-70
2023/06/02 02:39:08;;;;;;;13.40;3.75;;;13.30;91.10;;;;;;2091666;28;20107;-71
2023/06/02 02:40:09;;;;;;;12.18;3.63;;;13.30;91.60;;;;;;2090921;28;20047;-71
2023/06/02 02:41:10;;;;;;;15.25;4.00;;;13.30;91.40;;;;;;2091402;28;20999;-71
2023/06/02 02:42:10;;;;;;;8.43;3.90;;;13.30;91.50;;;;;;2093500;28;20017;-71
2023/06/02 02:43:11;;;;;;;13.65;3.65;;;13.30;91.60;;;;;;2092306;28;20023;-71
2023/06/02 02:44:12;;;;;;;15.23;4.30;;;13.30;91.70;;;;;;2090927;28;20035;-71
2023/06/02 02:45:12;;;;;;;10.98;3.80;;;13.30;91.70;;;;;;2094205;28;20036;-70
2023/06/02 02:46:13;;;;;;;10.10;4.38;;;13.30;91.70;;;;;;2092546;28;20025;-71
2023/06/02 02:47:13;;;;;;;8.18;3.78;;;13.30;91.80;;;;;;2090426;28;20051;-71
2023/06/02 02:48:14;;;;;;;12.52;4.05;;;13.20;91.80;;;;;;2091871;28;20036;-71
2023/06/02 02:49:14;;;;;;;11.57;4.07;;;13.20;91.90;;;;;;2092106;28;20033;-71
2023/06/02 02:50:15;;;;;;;13.32;4.47;;;13.30;91.80;;;;;;2092801;28;20029;-71
2023/06/02 02:51:16;;;;;;;16.00;4.05;;;13.20;91.70;;;;;;2090941;28;20624;-71
2023/06/02 02:52:16;;;;;;;11.85;4.18;;;13.20;91.70;;;;;;2091092;28;20025;-71
2023/06/02 02:53:17;;;;;;;12.30;3.92;;;13.20;91.70;;;;;;2091842;28;20055;-71
2023/06/02 02:54:17;;;;;;;10.63;3.75;;;13.20;91.70;;;;;;2089022;28;20035;-70
2023/06/02 02:55:18;;;;;;;10.48;3.55;;;13.20;91.60;;;;;;2091480;28;20048;-71
2023/06/02 02:56:18;;;;;;;12.70;3.90;;;13.20;91.60;;;;;;2093070;28;20043;-71
2023/06/02 02:57:19;;;;;;;14.10;4.30;;;13.20;91.80;;;;;;2090480;28;20460;-71
2023/06/02 02:58:20;;;;;;;16.88;4.30;;;13.20;91.90;;;;;;2092375;28;20024;-71
2023/06/02 02:59:21;;;;;;;11.38;4.30;;;13.20;91.90;;;;;;2091010;28;20565;-71
2023/06/02 03:00:21;;;;;;;11.85;3.97;;;13.20;92.10;;;;;;2091752;28;20024;-72
2023/06/02 03:01:23;;;;;;;12.15;4.30;;;13.20;92.20;;;;;;2099217;28;20024;-71
2023/06/02 03:02:23;;;;;;;13.65;4.40;;;13.20;92.20;;;;;;2098135;28;20043;-70
2023/06/02 03:03:24;;;;;;;13.00;5.68;;;13.20;92.10;;;;;;2094173;28;20119;-70
2023/06/02 03:04:25;;;;;;;7.93;3.55;;;13.20;92.00;;;;;;2094456;28;20508;-70
2023/06/02 03:05:26;;;;;;;16.75;4.30;;;13.20;92.00;;;;;;2090656;28;20120;-70
2023/06/02 03:06:31;;;;;;;15.05;4.13;;;13.20;91.90;;;;;;2091809;28;20020;-70
2023/06/02 03:07:34;;;;;;;12.07;4.18;;;13.20;91.90;;;;;;2092417;28;20035;-71
2023/06/02 03:08:35;;;;;;;15.57;4.28;;;13.20;92.00;;;;;;2091323;28;20028;-71
2023/06/02 03:09:36;;;;;;;10.18;3.90;;;13.20;92.10;;;;;;2090837;28;20029;-70
2023/06/02 03:10:36;;;;;;;12.50;4.07;;;13.20;91.90;;;;;;2092620;28;20016;-71
2023/06/02 03:11:37;;;;;;;11.93;4.05;;;13.20;91.80;;;;;;2092191;28;20048;-71
2023/06/02 03:12:37;;;;;;;13.00;3.45;;;13.20;91.70;;;;;;2089951;28;20024;-71
2023/06/02 03:13:38;;;;;;;13.48;3.70;;;13.20;91.80;;;;;;2091201;28;20025;-71
2023/06/02 03:14:38;;;;;;;14.15;4.22;;;13.20;91.80;;;;;;2089402;28;20063;-71
2023/06/02 03:15:39;;;;;;;10.40;3.47;;;13.20;92.00;;;;;;2092921;28;20469;-71
2023/06/02 03:16:44;;;;;;;11.88;3.58;;;13.20;92.20;;;;;;2091030;28;20040;-71
2023/06/02 03:17:45;;;;;;;9.10;3.30;;;13.20;92.20;;;;;;2090287;28;20027;-71
2023/06/02 03:18:46;;;;;;;11.10;3.83;;;13.20;92.10;;;;;;2092015;28;20108;-71
2023/06/02 03:19:47;;;;;;;12.50;4.05;;;13.20;92.20;;;;;;2090196;28;20013;-71
2023/06/02 03:20:48;;;;;;;12.32;4.38;;;13.20;92.30;;;;;;2090518;28;20060;-71
2023/06/02 03:21:48;;;;;;;11.77;3.85;;;13.20;92.20;;;;;;2089744;28;20023;-71
2023/06/02 03:22:49;;;;;;;13.02;4.03;;;13.20;92.10;;;;;;2091333;28;20101;-71
2023/06/02 03:23:50;;;;;;;10.27;4.03;;;13.20;92.00;;;;;;2091754;28;20021;-71
2023/06/02 03:24:50;;;;;;;16.85;4.30;;;13.20;92.00;;;;;;2088888;28;20025;-71
2023/06/02 03:25:51;;;;;;;14.45;3.50;;;13.20;92.10;;;;;;2090513;28;20029;-71
2023/06/02 03:26:55;;;;;;;11.63;4.43;;;13.20;92.10;;;;;;2089801;28;20106;-71
2023/06/02 03:27:55;;;;;;;11.55;3.78;;;13.20;92.00;;;;;;2089275;28;20108;-71
2023/06/02 03:28:56;;;;;;;16.98;5.60;;;13.20;92.00;;;;;;2090205;28;20216;-71
2023/06/02 03:29:56;;;;;;;8.73;3.45;;;13.20;92.00;;;;;;2092239;28;20026;-71
2023/06/02 03:30:57;;;;;;;15.38;3.63;;;13.20;92.00;;;;;;2089591;28;20037;-71
2023/06/02 03:31:59;;;;;;;13.82;3.92;;;13.30;91.90;;;;;;2091433;28;20475;-71
2023/06/02 03:32:59;;;;;;;15.35;4.75;;;13.30;92.10;;;;;;2093247;28;20472;-71
2023/06/02 03:34:01;;;;;;;15.38;4.03;;;13.30;92.00;;;;;;2090708;28;20028;-70
2023/06/02 03:35:01;;;;;;;13.48;3.85;;;13.20;91.90;;;;;;2091320;28;20028;-71
2023/06/02 03:36:02;;;;;;;6.93;3.53;;;13.30;92.10;;;;;;2092354;28;20036;-71
2023/06/02 03:37:03;;;;;;;15.20;3.60;;;13.30;91.90;;;;;;2089853;28;20396;-71
2023/06/02 03:38:05;;;;;;;11.68;4.13;;;13.20;92.00;;;;;;2089512;28;20082;-71
2023/06/02 03:39:07;;;;;;;13.73;3.80;;;13.20;92.10;;;;;;2091098;28;20073;-71
2023/06/02 03:40:09;;;;;;;13.88;4.13;;;13.30;92.10;;;;;;2091025;28;20024;-71
2023/06/02 03:41:10;;;;;;;23.73;4.53;;;13.20;92.30;;;;;;2092523;28;20020;-71
2023/06/02 03:42:10;;;;;;;12.93;4.30;;;13.30;92.30;;;;;;2089076;28;20048;-70
2023/06/02 03:43:11;;;;;;;12.32;3.80;;;13.20;92.10;;;;;;2091837;28;20023;-71
2023/06/02 03:44:11;;;;;;;9.73;4.03;;;13.30;92.20;;;;;;2090523;28;20023;-71
2023/06/02 03:45:12;;;;;;;12.18;3.78;;;13.30;92.10;;;;;;2090567;28;20021;-71
2023/06/02 03:46:12;;;;;;;14.52;4.28;;;13.20;91.90;;;;;;2090909;28;20087;-71
2023/06/02 03:47:13;;;;;;;11.40;3.75;;;13.20;92.00;;;;;;2089034;28;20358;-71
2023/06/02 03:48:13;;;;;;;14.68;4.82;;;13.20;92.10;;;;;;2090775;28;20074;-71
2023/06/02 03:49:14;;;;;;;11.95;4.50;;;13.20;92.20;;;;;;2091680;28;20029;-71
2023/06/02 03:50:14;;;;;;;9.77;3.78;;;13.20;92.30;;;;;;2089505;28;20020;-71
2023/06/02 03:51:15;;;;;;;16.77;4.38;;;13.20;92.30;;;;;;2093344;28;20032;-70
2023/06/02 03:52:16;;;;;;;10.90;3.47;;;13.20;92.30;;;;;;2089137;28;20369;-71
2023/06/02 03:53:16;;;;;;;13.73;4.40;;;13.20;92.30;;;;;;2092760;28;20029;-71
2023/06/02 03:54:17;;;;;;;10.40;3.78;;;13.20;92.40;;;;;;2090940;28;20028;-71
2023/06/02 03:55:17;;;;;;;11.25;4.18;;;13.20;92.50;;;;;;2090818;28;20031;-71
2023/06/02 03:56:19;;;;;;;12.60;3.97;;;13.10;92.60;;;;;;2092655;28;20028;-70
2023/06/02 03:57:20;;;;;;;15.50;4.47;;;13.10;92.70;;;;;;2092581;28;20021;-71
2023/06/02 03:58:21;;;;;;;10.85;3.78;;;13.10;92.70;;;;;;2093590;28;20021;-71
2023/06/02 03:59:21;;;;;;;10.50;3.92;;;13.10;92.60;;;;;;2094963;28;20052;-71
2023/06/02 04:00:22;;;;;;;14.38;4.53;;;13.10;92.60;;;;;;2084503;28;20220;-71
2023/06/02 04:01:23;;;;;;;9.35;3.78;;;13.10;92.40;;;;;;2093135;28;20024;-71
2023/06/02 04:02:23;;;;;;;12.25;4.05;;;13.10;92.40;;;;;;2092553;28;20496;-71
2023/06/02 04:03:24;;;;;;;10.30;4.00;;;13.10;92.50;;;;;;2092143;28;20075;-71
2023/06/02 04:04:25;;;;;;;13.77;4.55;;;13.10;92.70;;;;;;2095350;28;20025;-71
2023/06/02 04:05:25;;;;;;;13.30;4.45;;;13.10;93.00;;;;;;2095925;28;20031;-71
2023/06/02 04:06:28;;;;;;;15.50;4.47;;;13.00;92.70;;;;;;2091817;28;20058;-71
2023/06/02 04:07:28;;;;;;;14.77;4.93;;;13.00;92.90;;;;;;2090117;28;20023;-70
2023/06/02 04:08:29;;;;;;;11.98;4.10;;;13.00;92.80;;;;;;2091677;28;20480;-71
2023/06/02 04:09:30;;;;;;;10.57;4.22;;;13.00;92.80;;;;;;2090119;28;20024;-71
2023/06/02 04:10:31;;;;;;;12.52;4.43;;;13.00;92.90;;;;;;2093024;28;20392;-71
2023/06/02 04:11:31;;;;;;;11.32;4.38;;;13.00;92.90;;;;;;2095290;28;20052;-71
2023/06/02 04:12:32;;;;;;;11.48;4.05;;;13.10;93.00;;;;;;2094706;28;20040;-71
2023/06/02 04:13:33;;;;;;;13.25;4.30;;;13.00;92.90;;;;;;2093089;28;20032;-71
2023/06/02 04:14:34;;;;;;;13.35;3.92;;;13.00;93.00;;;;;;2095318;28;20020;-71
2023/06/02 04:15:34;;;;;;;9.63;3.80;;;13.00;93.00;;;;;;2094982;28;20130;-70
2023/06/02 04:16:35;;;;;;;12.43;4.43;;;13.00;92.70;;;;;;2092060;28;20021;-71
2023/06/02 04:17:37;;;;;;;12.00;4.43;;;13.00;92.80;;;;;;2095566;28;20032;-71
2023/06/02 04:18:39;;;;;;;12.95;3.95;;;13.10;93.00;;;;;;2092025;28;20499;-70
2023/06/02 04:19:39;;;;;;;10.75;3.85;;;13.00;93.00;;;;;;2093227;28;20131;-71
2023/06/02 04:20:40;;;;;;;11.90;4.90;;;13.00;93.20;;;;;;2091012;28;20024;-71
2023/06/02 04:21:40;;;;;;;11.55;4.55;;;13.00;93.20;;;;;;2091868;28;20048;-71
2023/06/02 04:22:41;;;;;;;12.63;4.13;;;13.10;93.00;;;;;;2092930;28;20485;-71
2023/06/02 04:23:43;;;;;;;16.63;5.25;;;13.00;93.30;;;;;;2093792;28;20082;-70
2023/06/02 04:24:44;;;;;;;14.27;4.22;;;13.10;93.40;;;;;;2094151;28;20465;-70
2023/06/02 04:25:45;;;;;;;8.27;4.00;;;13.10;93.40;;;;;;2092256;28;20016;-71
2023/06/02 04:26:46;;;;;;;12.38;4.30;;;13.10;93.30;;;;;;2093002;28;20027;-70
2023/06/02 04:27:47;;;;;;;13.52;4.90;;;13.10;93.20;;;;;;2092028;28;20032;-70
2023/06/02 04:28:47;;;;;;;10.65;3.85;;;13.10;93.40;;;;;;2093344;28;20024;-70
2023/06/02 04:29:48;;;;;;;16.60;4.18;;;13.10;93.20;;;;;;2093538;28;20096;-70
2023/06/02 04:30:53;;;;;;;15.10;4.03;;;13.10;93.10;;;;;;2090585;28;20029;-71
2023/06/02 04:31:53;;;;;;;10.98;4.22;;;13.10;93.30;;;;;;2091299;28;20025;-70
2023/06/02 04:32:54;;;;;;;12.02;3.95;;;13.10;93.40;;;;;;2091945;28;20037;-70
2023/06/02 04:33:55;;;;;;;14.02;4.97;;;13.10;93.40;;;;;;2090090;28;20028;-71
2023/06/02 04:34:56;;;;;;;12.80;4.10;;;13.20;93.40;;;;;;2091593;28;20071;-70
2023/06/02 04:35:56;;;;;;;10.90;3.90;;;13.20;93.60;;;;;;2091817;28;20122;-71
2023/06/02 04:36:58;;;;;;;12.70;4.32;;;13.20;93.20;;;;;;2091856;28;20150;-70
2023/06/02 04:38:03;;;;;;;11.65;4.32;;;13.20;93.10;;;;;;2093025;28;20041;-70
2023/06/02 04:39:06;;;;;;;10.57;4.15;;;13.20;93.20;;;;;;2092121;28;20012;-70
2023/06/02 04:40:08;;;;;;;12.95;3.97;;;13.20;93.40;;;;;;2094181;28;20023;-70
2023/06/02 04:41:08;;;;;;;16.42;4.05;;;13.20;93.40;;;;;;2096721;28;20103;-70
2023/06/02 04:42:09;;;;;;;10.98;3.60;;;13.20;93.30;;;;;;2092857;28;20020;-70
2023/06/02 04:43:09;;;;;;;15.23;3.95;;;13.30;93.30;;;;;;2095380;28;20084;-70
2023/06/02 04:44:11;;;;;;;13.45;3.47;;;13.30;93.30;;;;;;2092402;28;20020;-71
2023/06/02 04:45:12;;;;;;;13.60;3.80;;;13.30;93.20;;;;;;2092733;28;20365;-70
2023/06/02 04:46:12;;;;;;;10.65;3.47;;;13.30;93.30;;;;;;2093167;28;20066;-70
2023/06/02 04:47:13;;;;;;;9.88;3.83;;;13.30;93.00;;;;;;2092094;28;20021;-70
2023/06/02 04:48:13;;;;;;;12.02;4.10;;;13.30;93.30;;;;;;2092088;28;20052;-70
2023/06/02 04:49:14;;;;;;;12.27;3.97;;;13.30;93.20;;;;;;2092702;28;20146;-71
2023/06/02 04:50:15;;;;;;;7.68;3.88;;;13.30;93.30;;;;;;2091754;28;20373;-71
2023/06/02 04:51:15;;;;;;;9.75;4.45;;;13.30;93.10;;;;;;2094133;28;20039;-71
2023/06/02 04:52:16;;;;;;;14.25;3.80;;;13.30;93.30;;;;;;2092144;28;20416;-70
2023/06/02 04:53:16;;;;;;;13.50;4.10;;;13.30;93.30;;;;;;2093426;28;20025;-70
2023/06/02 04:54:17;;;;;;;13.27;4.40;;;13.30;93.10;;;;;;2094521;28;20415;-70
2023/06/02 04:55:17;;;;;;;10.85;3.65;;;13.30;93.10;;;;;;2091628;28;20040;-70
2023/06/02 04:56:18;;;;;;;10.38;4.35;;;13.30;93.30;;;;;;2092657;28;20132;-70
2023/06/02 04:57:18;;;;;;;12.55;4.40;;;13.30;93.30;;;;;;2092721;28;20031;-70
2023/06/02 04:58:19;;;;;;;13.80;4.25;;;13.30;93.30;;;;;;2091002;28;20025;-70
2023/06/02 04:59:21;;;;;;;11.40;4.13;;;13.30;93.50;;;;;;2092188;28;20407;-70
2023/06/02 05:00:21;;;;;;;14.38;4.28;;;13.30;93.70;;;;;;2094682;28;20021;-70
2023/06/02 05:01:22;;;;;;;14.10;4.65;;;13.30;93.90;;;;;;2095298;28;20017;-70
2023/06/02 05:02:22;;;;;;;15.32;4.97;;;13.30;93.80;;;;;;2092657;28;20380;-70
2023/06/02 05:03:23;;;;;;;14.18;4.00;;;13.30;93.60;;;;;;2093207;28;20025;-72
2023/06/02 05:04:24;;;;;;;10.32;3.83;;;13.30;93.90;;;;;;2093836;28;20051;-70
2023/06/02 05:05:24;;;;;;;11.52;4.03;;;13.30;93.60;;;;;;2092396;28;20051;-70
2023/06/02 05:06:25;;;;;;;11.50;3.97;;;13.30;93.90;;;;;;2089165;28;20115;-73
2023/06/02 05:07:27;;;;;;;11.38;4.25;;;13.30;94.10;;;;;;2092043;28;20067;-71
2023/06/02 05:08:27;;;;;;;13.75;4.32;;;13.40;94.00;;;;;;2092266;28;20013;-70
2023/06/02 05:09:28;;;;;;;11.48;3.88;;;13.40;94.00;;;;;;2090005;28;20529;-70
2023/06/02 05:10:29;;;;;;;14.00;4.53;;;13.40;93.90;;;;;;2095950;28;20023;-70
2023/06/02 05:11:29;;;;;;;12.20;3.70;;;13.40;93.60;;;;;;2095603;28;20044;-70
2023/06/02 05:12:30;;;;;;;12.00;4.00;;;13.40;93.70;;;;;;2092217;28;20024;-71
2023/06/02 05:13:31;;;;;;;8.70;4.00;;;13.40;94.00;;;;;;2095107;28;20455;-70
2023/06/02 05:14:32;;;;;;;12.98;4.18;;;13.40;93.90;;;;;;2095172;28;20020;-71
2023/06/02 05:15:32;;;;;;;12.50;3.80;;;13.40;93.60;;;;;;2091543;28;20020;-71
2023/06/02 05:16:33;;;;;;;18.98;4.35;;;13.40;93.50;;;;;;2090931;28;20036;-71
2023/06/02 05:17:33;;;;;;;9.77;3.88;;;13.40;93.60;;;;;;2092457;28;20029;-71